Alyeska Resort
Hourly Weather - Mid Mountian Site
ALY_MID_HR 11/23/2014
CLICK TO VIEW GRAPH!!

        DATE  TIME   Air   H2o   H2o   New  Snow  BATT   Rel
                    Temp  Inch Since  Snow Depth  Volt  Hum%
                      F   1HR  0600   1HR         AVG   AVG

  11/23/2014 06:00    32  0.00  0.40   4.1  5.70 13.42    96
  11/23/2014 05:00    32  0.00  0.40   4.1  6.30 13.42    97
  11/23/2014 04:00    32  0.00  0.40   4.1  8.39 13.41    97
  11/23/2014 03:00    32  0.00  0.40   4.4  8.38 13.41    97
  11/23/2014 02:00    33  0.06  0.40   4.4  5.13 13.41    96
  11/23/2014 01:00    33  0.07  0.34   3.6  5.83 13.41    96
  11/22/2014 24:00    33  0.01  0.27   3.3  4.37 13.42    97
  11/22/2014 23:00    32  0.00  0.26   3.3  6.81 13.42    97
  11/22/2014 22:00    32  0.00  0.26   3.2  5.39 13.42    97
  11/22/2014 21:00    32  0.00  0.26   2.9  4.76 13.41    97
  11/22/2014 20:00    32  0.04  0.26   3.1  4.66 13.41    97
  11/22/2014 19:00    32  0.03  0.22   2.7  4.62 13.42    97
  11/22/2014 18:00    32  0.01  0.19   2.3  5.27 13.42    97
  11/22/2014 17:00    32  0.01  0.18   2.1  5.34 13.41    97
  11/22/2014 16:00    32  0.04  0.17   2.3  4.97 13.41    96
  11/22/2014 15:00    32  0.06  0.13   1.6  1.57 13.40    97
  11/22/2014 14:00    33  0.06  0.07   0.4  3.17 13.39    94
  11/22/2014 13:00    34  0.00  0.01   0.3  5.79 13.39    91
  11/22/2014 12:00    35  0.00  0.01   0.4  5.18 13.40    85
  11/22/2014 11:00    35  0.00  0.01   0.4  4.85 13.41    85
  11/22/2014 10:00    34  0.01  0.01   0.3  5.55 13.41    88
  11/22/2014 09:00    33  0.00  0.00   0.3  5.82 13.41    90
  11/22/2014 08:00    32  0.00  0.00   0.2  5.80 13.41    93
  11/22/2014 07:00    32  0.00  0.00   0.3  5.82 13.40    96


CLICK TO VIEW GRAPH!!